Time;durP1;ratioP1;P1;durP2;ratioP2;P2;SDS_P1;SDS_P2;PMS_P1;PMS_P2;Temp;Humidity;BMP_temperature;BMP_pressure;BME280_temperature;BME280_humidity;BME280_pressure;Samples;Min_cycle;Max_cycle;Signal;HPM_P1;HPM_P2
2023/05/12 00:01:26;;;;;;;9.38;4.15;;;;;;;13.62;58.92;101141.50;4991055;28;20048;-68
2023/05/12 00:03:52;;;;;;;14.52;4.50;;;;;;;13.59;59.38;101142.72;4970891;28;20077;-67
2023/05/12 00:06:20;;;;;;;8.15;3.97;;;;;;;13.68;58.96;101142.69;4971067;28;20507;-68
2023/05/12 00:08:46;;;;;;;8.82;4.00;;;;;;;13.51;59.19;101137.31;4970875;28;20082;-64
2023/05/12 00:11:13;;;;;;;9.27;3.92;;;;;;;13.63;58.88;101137.84;4972146;28;20063;-68
2023/05/12 00:13:40;;;;;;;9.02;4.18;;;;;;;13.53;58.77;101142.56;4970820;28;20047;-69
2023/05/12 00:16:06;;;;;;;11.25;3.90;;;;;;;13.48;58.82;101140.34;4971535;28;20519;-68
2023/05/12 00:18:33;;;;;;;8.52;4.18;;;;;;;13.46;59.11;101142.38;4971956;28;20392;-69
2023/05/12 00:21:00;;;;;;;9.98;3.92;;;;;;;13.53;58.78;101142.56;4974432;28;20050;-67
2023/05/12 00:23:26;;;;;;;6.90;3.95;;;;;;;13.46;58.73;101139.69;4975123;28;20049;-69
2023/05/12 00:25:53;;;;;;;18.38;4.43;;;;;;;13.51;58.47;101133.78;4974504;28;20189;-67
2023/05/12 00:28:19;;;;;;;10.50;4.07;;;;;;;13.43;58.79;101134.63;4974792;28;20074;-67
2023/05/12 00:30:46;;;;;;;8.95;4.07;;;;;;;13.40;58.85;101129.56;4973934;28;20134;-65
2023/05/12 00:33:12;;;;;;;16.05;4.25;;;;;;;13.25;59.19;101137.50;4974748;28;20075;-65
2023/05/12 00:35:39;;;;;;;7.93;4.40;;;;;;;13.46;58.77;101136.16;4974025;28;20047;-64
2023/05/12 00:38:06;;;;;;;16.60;4.60;;;;;;;13.26;58.88;101141.88;4974140;28;20047;-64
2023/05/12 00:40:32;;;;;;;11.07;4.63;;;;;;;13.27;59.06;101145.41;4974642;28;20393;-64
2023/05/12 00:42:59;;;;;;;7.63;4.45;;;;;;;13.02;59.16;101144.53;4975001;28;20077;-65
2023/05/12 00:45:28;;;;;;;9.98;4.80;;;;;;;13.01;59.32;101138.31;4974742;28;20042;-65
2023/05/12 00:47:55;;;;;;;9.18;4.45;;;;;;;12.94;59.75;101147.19;4958439;28;20043;-65
2023/05/12 00:50:22;;;;;;;11.25;4.07;;;;;;;12.97;59.90;101142.34;4955045;28;20053;-66
2023/05/12 00:52:49;;;;;;;15.00;4.57;;;;;;;12.94;59.71;101141.81;4957033;28;20800;-64
2023/05/12 00:55:15;;;;;;;12.93;5.00;;;;;;;12.82;59.81;101147.53;4973274;28;20055;-65
2023/05/12 00:57:42;;;;;;;8.07;4.28;;;;;;;12.73;60.04;101151.19;4974158;28;20050;-65
2023/05/12 01:00:09;;;;;;;13.23;4.50;;;;;;;12.68;60.28;101142.75;4973613;28;20051;-65
2023/05/12 01:02:36;;;;;;;10.25;4.35;;;;;;;12.61;60.34;101147.09;4982354;28;20105;-65
2023/05/12 01:08:50;;;;;;;9.23;3.97;;;;;;;12.83;60.12;101143.84;4993396;28;20053;-69
2023/05/12 01:11:16;;;;;;;12.00;4.32;;;;;;;12.46;60.94;101146.88;4976897;28;20430;-65
2023/05/12 01:13:43;;;;;;;14.13;4.38;;;;;;;12.50;60.94;101152.78;4973063;28;20109;-65
2023/05/12 01:16:13;;;;;;;10.52;4.05;;;;;;;12.54;61.10;101148.75;4973257;28;20415;-65
2023/05/12 01:18:42;;;;;;;15.23;4.10;;;;;;;12.50;61.12;101148.25;4974040;28;20130;-65
2023/05/12 01:21:10;;;;;;;20.40;4.28;;;;;;;12.54;60.87;101154.13;4973814;28;20134;-65
2023/05/12 01:23:41;;;;;;;9.32;4.28;;;;;;;12.28;61.55;101156.88;4965936;28;20137;-64
2023/05/12 01:26:08;;;;;;;13.55;4.60;;;;;;;12.38;61.86;101153.06;4985587;28;20053;-64
2023/05/12 01:28:36;;;;;;;13.77;4.65;;;;;;;12.37;61.98;101150.53;4973557;28;20050;-64
2023/05/12 01:31:05;;;;;;;13.85;5.00;;;;;;;12.22;62.29;101153.00;4972587;28;20046;-64
2023/05/12 01:33:32;;;;;;;11.10;4.28;;;;;;;12.40;61.67;101152.91;4966010;28;20086;-63
2023/05/12 01:35:59;;;;;;;12.70;4.28;;;;;;;12.32;62.05;101152.88;4974364;28;20055;-62
2023/05/12 01:38:26;;;;;;;8.88;4.20;;;;;;;12.35;62.11;101153.41;4972199;28;20078;-62
2023/05/12 01:40:52;;;;;;;10.82;4.60;;;;;;;12.24;62.55;101150.13;4982343;28;20074;-62
2023/05/12 01:43:19;;;;;;;10.18;4.18;;;;;;;12.13;62.73;101149.41;4974674;28;20050;-62
2023/05/12 01:45:47;;;;;;;10.32;4.22;;;;;;;12.22;62.72;101162.91;4973873;28;20047;-62
2023/05/12 01:48:14;;;;;;;15.65;4.55;;;;;;;12.26;63.05;101156.22;4974947;28;20134;-62
2023/05/12 01:50:41;;;;;;;13.85;4.85;;;;;;;12.23;62.51;101156.53;4974235;28;20545;-62
2023/05/12 01:53:09;;;;;;;11.88;4.32;;;;;;;12.19;62.71;101161.38;4974210;28;20130;-63
2023/05/12 01:55:35;;;;;;;7.53;4.03;;;;;;;12.19;62.77;101157.84;4974614;28;20070;-64
2023/05/12 01:58:02;;;;;;;12.73;4.15;;;;;;;12.11;63.15;101155.97;4974145;28;20053;-62
2023/05/12 02:00:29;;;;;;;11.43;4.03;;;;;;;12.12;63.09;101163.88;4973742;28;20078;-62
2023/05/12 02:02:55;;;;;;;9.80;4.13;;;;;;;12.17;62.67;101155.31;4974807;28;20042;-63
2023/05/12 02:05:22;;;;;;;9.57;3.88;;;;;;;12.03;63.27;101163.97;4974201;28;20134;-63
2023/05/12 02:07:48;;;;;;;10.80;4.57;;;;;;;12.10;63.38;101162.31;4993444;28;20066;-61
2023/05/12 02:10:15;;;;;;;9.07;4.60;;;;;;;12.04;63.42;101166.53;4992475;28;20109;-62
2023/05/12 02:12:42;;;;;;;14.85;4.07;;;;;;;11.97;63.65;101167.28;4993803;28;20050;-62
2023/05/12 02:15:09;;;;;;;7.50;4.10;;;;;;;11.97;63.49;101170.84;4993225;28;20042;-61
2023/05/12 02:17:35;;;;;;;9.30;4.65;;;;;;;11.89;64.30;101177.00;4993612;28;20054;-62
2023/05/12 02:20:04;;;;;;;10.98;4.35;;;;;;;12.03;64.26;101174.72;4993410;28;20088;-62
2023/05/12 02:22:30;;;;;;;15.27;4.55;;;;;;;12.02;64.07;101173.88;4993245;28;20061;-62
2023/05/12 02:24:56;;;;;;;12.10;4.93;;;;;;;11.86;64.84;101168.41;4993001;28;20052;-63
2023/05/12 02:27:23;;;;;;;7.57;4.32;;;;;;;11.80;65.15;101169.88;4992589;28;20060;-64
2023/05/12 02:29:50;;;;;;;15.65;4.60;;;;;;;11.75;65.63;101188.31;4991666;28;20421;-64
2023/05/12 02:32:16;;;;;;;10.68;4.78;;;;;;;11.79;65.76;101187.00;4990979;28;20050;-64
2023/05/12 02:34:43;;;;;;;14.38;4.90;;;;;;;11.77;66.11;101183.63;4990586;28;20757;-64
2023/05/12 02:37:09;;;;;;;20.27;5.35;;;;;;;11.66;66.85;101189.28;4991215;28;20057;-63
2023/05/12 02:39:36;;;;;;;13.90;4.88;;;;;;;11.67;66.98;101188.25;4991079;28;20088;-65
2023/05/12 02:42:02;;;;;;;8.52;4.22;;;;;;;11.57;67.75;101188.31;4989695;28;20395;-65
2023/05/12 02:44:29;;;;;;;9.48;4.30;;;;;;;11.66;67.86;101183.91;4991317;28;20517;-65
2023/05/12 02:46:56;;;;;;;10.75;4.75;;;;;;;11.54;68.41;101190.47;4973385;28;20414;-64
2023/05/12 02:49:23;;;;;;;16.90;4.95;;;;;;;11.43;68.86;101189.72;4991325;28;20055;-67
2023/05/12 02:51:49;;;;;;;12.18;4.30;;;;;;;11.33;69.21;101188.09;4990581;28;20042;-67
2023/05/12 02:54:16;;;;;;;9.27;4.63;;;;;;;11.44;69.43;101186.00;4989778;28;20050;-67
2023/05/12 02:56:42;;;;;;;18.90;4.95;;;;;;;11.52;69.47;101181.72;4990565;28;20058;-68
2023/05/12 02:59:09;;;;;;;17.55;4.82;;;;;;;11.36;69.86;101193.16;4963944;28;20148;-66
2023/05/12 03:01:36;;;;;;;11.48;4.25;;;;;;;11.19;70.84;101189.47;4989457;28;20487;-67
2023/05/12 03:04:02;;;;;;;10.07;4.75;;;;;;;11.20;71.35;101183.09;4989971;28;20050;-68
2023/05/12 03:06:29;;;;;;;11.38;4.85;;;;;;;11.14;72.24;101181.91;4990062;28;20515;-67
2023/05/12 03:08:55;;;;;;;10.02;5.25;;;;;;;11.05;72.46;101184.66;4989670;28;20054;-66
2023/05/12 03:11:22;;;;;;;11.93;4.68;;;;;;;11.07;72.96;101193.41;4990318;28;20061;-66
2023/05/12 03:13:48;;;;;;;9.70;4.60;;;;;;;10.99;73.74;101192.28;4990930;28;20510;-67
2023/05/12 03:16:16;;;;;;;10.10;4.25;;;;;;;10.87;74.49;101190.00;4989339;28;20062;-67
2023/05/12 03:18:45;;;;;;;8.95;4.80;;;;;;;10.89;74.99;101191.50;4989393;28;20058;-68
2023/05/12 03:21:11;;;;;;;16.23;5.10;;;;;;;10.69;75.79;101196.16;4989413;28;20498;-68
2023/05/12 03:23:38;;;;;;;9.00;4.82;;;;;;;10.89;75.66;101199.56;4989940;28;20446;-68
2023/05/12 03:26:05;;;;;;;13.25;4.95;;;;;;;10.87;75.72;101200.72;4989933;28;20498;-67
2023/05/12 03:28:31;;;;;;;17.58;5.43;;;;;;;10.80;76.11;101199.66;4990160;28;20299;-68
2023/05/12 03:30:58;;;;;;;17.58;4.97;;;;;;;10.85;76.04;101200.03;4990423;28;20090;-66
2023/05/12 03:33:24;;;;;;;16.73;4.45;;;;;;;10.68;77.16;101202.50;4990337;28;20077;-67
2023/05/12 03:35:51;;;;;;;11.80;4.97;;;;;;;10.78;76.93;101202.47;4990651;28;20046;-68
2023/05/12 03:38:17;;;;;;;12.82;4.72;;;;;;;10.92;76.35;101201.94;4989695;28;20058;-68
2023/05/12 03:40:44;;;;;;;7.60;4.35;;;;;;;10.77;77.14;101206.16;4989786;28;20050;-68
2023/05/12 03:43:10;;;;;;;11.55;4.43;;;;;;;10.74;77.76;101206.44;4989677;28;20129;-66
2023/05/12 03:45:36;;;;;;;12.77;4.80;;;;;;;10.59;78.22;101205.25;4989693;28;20057;-67
2023/05/12 03:48:03;;;;;;;16.52;5.22;;;;;;;10.45;80.02;101210.09;4989715;28;20410;-67
2023/05/12 03:50:30;;;;;;;10.68;5.22;;;;;;;10.44;80.08;101205.72;4979177;28;20057;-66
2023/05/12 03:52:57;;;;;;;10.80;4.85;;;;;;;10.52;80.70;101206.84;4989237;28;20051;-66
2023/05/12 03:55:23;;;;;;;15.85;5.65;;;;;;;10.59;79.64;101202.56;4986318;28;20418;-64
2023/05/12 03:57:50;;;;;;;9.95;5.40;;;;;;;10.59;80.26;101205.25;4974857;28;20488;-63
2023/05/12 04:00:17;;;;;;;13.52;5.15;;;;;;;10.65;79.28;101205.50;4974352;28;20051;-63
2023/05/12 04:02:43;;;;;;;11.88;5.32;;;;;;;10.48;79.97;101209.78;4983825;28;20042;-64
2023/05/12 04:05:10;;;;;;;8.95;5.47;;;;;;;10.55;80.55;101206.53;4992840;28;20061;-64
2023/05/12 04:07:37;;;;;;;13.00;5.32;;;;;;;10.55;80.64;101211.88;4994035;28;20495;-64
2023/05/12 04:10:04;;;;;;;16.30;4.82;;;;;;;10.47;80.96;101202.72;4994339;28;20057;-65
2023/05/12 04:12:30;;;;;;;10.45;5.75;;;;;;;10.52;80.34;101209.53;4993184;28;20069;-64
2023/05/12 04:14:57;;;;;;;14.68;5.30;;;;;;;10.41;81.53;101216.75;4994421;28;20046;-63
2023/05/12 04:17:24;;;;;;;18.33;5.30;;;;;;;10.28;82.63;101213.53;4995925;28;20046;-63
2023/05/12 04:19:51;;;;;;;8.60;4.90;;;;;;;10.70;79.88;101213.09;4994058;28;20046;-63
2023/05/12 04:22:18;;;;;;;16.60;5.57;;;;;;;10.73;79.25;101218.19;4996235;28;20065;-63
2023/05/12 04:24:44;;;;;;;12.20;5.00;;;;;;;10.49;81.06;101211.47;4995493;28;20069;-62
2023/05/12 04:27:11;;;;;;;13.23;5.38;;;;;;;10.35;82.46;101209.28;4995333;28;20125;-62
2023/05/12 04:29:37;;;;;;;10.10;4.90;;;;;;;10.38;82.98;101217.03;4994847;28;20129;-65
2023/05/12 04:32:04;;;;;;;16.85;5.70;;;;;;;10.36;83.13;101215.47;4995717;28;20133;-64
2023/05/12 04:34:31;;;;;;;11.50;4.85;;;;;;;10.48;82.24;101220.53;4993767;28;20050;-63
2023/05/12 04:36:57;;;;;;;18.70;4.70;;;;;;;10.45;82.50;101219.97;4994425;28;20406;-62
2023/05/12 04:39:24;;;;;;;16.88;5.57;;;;;;;10.39;82.86;101224.06;4995465;28;20046;-62
2023/05/12 04:41:50;;;;;;;19.60;5.43;;;;;;;10.43;82.69;101222.78;4995319;28;20058;-62
2023/05/12 04:44:17;;;;;;;11.90;5.07;;;;;;;10.30;84.29;101235.66;4995713;28;20414;-62
2023/05/12 04:46:43;;;;;;;15.90;5.57;;;;;;;10.31;84.66;101229.34;4990971;28;20073;-62
2023/05/12 04:49:10;;;;;;;11.50;4.93;;;;;;;10.40;84.49;101233.81;4995207;28;20130;-62
2023/05/12 04:51:41;;;;;;;14.40;5.43;;;;;;;10.18;85.35;101226.97;4992410;28;20053;-63
2023/05/12 04:54:09;;;;;;;16.50;5.88;;;;;;;10.31;83.97;101239.22;4993132;28;20046;-62
2023/05/12 04:56:36;;;;;;;18.85;5.57;;;;;;;10.31;84.69;101240.06;4994195;28;20038;-61
2023/05/12 04:59:02;;;;;;;11.07;5.05;;;;;;;10.29;85.01;101231.31;4985324;28;20073;-61
2023/05/12 05:01:29;;;;;;;18.48;5.30;;;;;;;10.34;85.05;101242.47;4993656;28;20046;-62
2023/05/12 05:03:56;;;;;;;13.55;5.40;;;;;;;10.21;85.84;101242.78;4973735;28;20413;-65
2023/05/12 05:06:22;;;;;;;13.85;5.22;;;;;;;10.32;85.97;101246.28;4976055;28;20046;-62
2023/05/12 05:08:49;;;;;;;11.65;5.45;;;;;;;10.47;84.16;101256.38;4973009;28;20409;-62
2023/05/12 05:11:16;;;;;;;15.50;6.10;;;;;;;10.59;82.94;101253.56;4975697;28;20103;-62
2023/05/12 05:13:42;;;;;;;14.32;5.45;;;;;;;10.63;83.07;101247.75;4975647;28;20073;-64
2023/05/12 05:16:09;;;;;;;11.88;5.63;;;;;;;10.72;82.13;101254.91;4957911;28;20107;-62
2023/05/12 05:18:36;;;;;;;17.45;6.30;;;;;;;10.65;82.31;101258.31;4974247;28;20057;-64
2023/05/12 05:21:03;;;;;;;13.88;5.50;;;;;;;10.76;81.56;101250.09;4974156;28;20055;-64
2023/05/12 05:23:29;;;;;;;14.02;6.00;;;;;;;10.91;81.17;101259.31;4970442;28;20055;-62
2023/05/12 05:25:56;;;;;;;9.10;5.20;;;;;;;10.92;80.59;101255.63;4974091;28;20053;-66
2023/05/12 05:28:22;;;;;;;16.58;5.95;;;;;;;11.15;79.73;101256.06;4975480;28;20142;-64
2023/05/12 05:30:49;;;;;;;17.95;5.53;;;;;;;11.16;78.86;101265.81;4973684;28;20043;-63
2023/05/12 05:33:15;;;;;;;17.70;6.03;;;;;;;11.20;77.65;101261.81;4973538;28;20066;-62
2023/05/12 05:35:42;;;;;;;13.70;5.28;;;;;;;11.20;77.54;101255.63;4974587;28;20047;-63
2023/05/12 05:38:09;;;;;;;16.85;5.40;;;;;;;11.34;75.72;101265.84;4973815;28;20057;-64
2023/05/12 05:40:35;;;;;;;12.60;5.00;;;;;;;11.56;74.60;101261.88;4973443;28;20440;-63
2023/05/12 05:43:17;;;;;;;12.23;5.65;;;;;;;11.72;72.67;101271.94;4973818;28;20058;-63
2023/05/12 05:45:43;;;;;;;11.43;5.50;;;;;;;11.86;71.84;101268.75;4974218;28;20141;-64
2023/05/12 05:48:10;;;;;;;11.93;5.70;;;;;;;11.76;71.20;101273.34;4971727;28;20053;-63
2023/05/12 05:50:36;;;;;;;18.80;5.82;;;;;;;11.74;71.28;101278.03;4971961;28;20176;-64
2023/05/12 05:53:03;;;;;;;14.38;5.13;;;;;;;11.79;70.56;101273.00;4971670;28;20134;-65
2023/05/12 05:55:29;;;;;;;8.93;5.60;;;;;;;11.77;70.86;101277.72;4972416;28;20496;-68
2023/05/12 05:57:56;;;;;;;12.93;5.20;;;;;;;11.77;71.27;101276.88;4964565;28;20455;-68
2023/05/12 06:00:22;;;;;;;12.27;4.85;;;;;;;12.02;70.64;101280.63;4972097;28;20069;-67
2023/05/12 06:02:49;;;;;;;16.33;5.65;;;;;;;12.06;70.14;101273.91;4982519;28;20046;-68
2023/05/12 06:05:16;;;;;;;10.48;5.45;;;;;;;12.20;69.59;101284.09;4991659;28;20054;-68
2023/05/12 06:07:43;;;;;;;14.13;5.40;;;;;;;12.19;68.48;101286.97;4990330;28;20054;-67
2023/05/12 06:10:11;;;;;;;24.15;5.22;;;;;;;12.25;67.67;101284.50;4990664;28;20047;-67
2023/05/12 06:12:39;;;;;;;10.82;4.75;;;;;;;12.24;67.55;101281.94;4990965;28;20066;-68
2023/05/12 06:15:07;;;;;;;18.50;5.10;;;;;;;12.12;68.02;101286.75;4990702;28;20047;-67
2023/05/12 06:17:33;;;;;;;11.38;4.95;;;;;;;12.33;68.05;101279.16;4990290;28;20477;-66
2023/05/12 06:20:00;;;;;;;13.77;4.63;;;;;;;12.41;66.99;101278.34;4990437;28;20074;-67
2023/05/12 06:22:26;;;;;;;20.52;5.35;;;;;;;12.50;67.21;101279.28;4991274;28;20042;-66
2023/05/12 06:24:53;;;;;;;20.25;5.47;;;;;;;12.70;65.68;101290.66;4990432;28;20125;-67
2023/05/12 06:27:19;;;;;;;11.15;4.65;;;;;;;12.83;65.67;101293.75;4990344;28;20504;-67
2023/05/12 06:29:46;;;;;;;13.85;4.30;;;;;;;12.59;65.03;101292.63;4990252;28;20048;-67
2023/05/12 06:32:12;;;;;;;14.10;5.13;;;;;;;12.68;65.68;101298.88;4990838;28;20045;-66
2023/05/12 06:34:39;;;;;;;8.95;4.45;;;;;;;12.93;65.18;101302.56;4990907;28;20046;-66
2023/05/12 06:37:05;;;;;;;26.00;6.32;;;;;;;12.86;64.30;101296.13;4985961;28;20081;-69
2023/05/12 06:39:32;;;;;;;20.00;5.07;;;;;;;13.20;63.90;101289.88;4988305;28;20042;-64
2023/05/12 06:41:58;;;;;;;9.98;5.60;;;;;;;13.22;63.08;101299.50;4971022;28;20050;-64
2023/05/12 06:44:25;;;;;;;17.48;5.03;;;;;;;13.08;62.92;101297.41;4972398;28;20051;-64
2023/05/12 06:46:52;;;;;;;25.42;5.07;;;;;;;13.24;62.23;101294.75;4971639;28;20047;-64
2023/05/12 06:49:19;;;;;;;16.52;4.57;;;;;;;13.19;61.20;101291.72;4971758;28;20042;-63
2023/05/12 06:51:45;;;;;;;9.98;4.93;;;;;;;13.32;60.66;101294.81;4971636;28;20047;-63
2023/05/12 06:54:12;;;;;;;11.68;4.72;;;;;;;13.62;59.81;101289.78;4970847;28;20065;-65
2023/05/12 06:56:39;;;;;;;13.88;5.03;;;;;;;13.90;58.67;101290.34;4971133;28;20046;-66
2023/05/12 06:59:05;;;;;;;10.43;4.53;;;;;;;14.10;57.45;101288.16;4971270;28;20051;-64
2023/05/12 07:01:32;;;;;;;11.75;4.03;;;;;;;14.12;57.31;101288.84;4972972;28;20047;-65
2023/05/12 07:03:59;;;;;;;11.82;4.55;;;;;;;14.54;56.16;101298.56;4991319;28;20077;-65
2023/05/12 07:06:26;;;;;;;14.90;4.72;;;;;;;14.44;55.92;101293.34;4990759;28;20050;-64
2023/05/12 07:08:54;;;;;;;12.80;4.47;;;;;;;14.86;54.91;101294.13;4990049;28;20414;-65
2023/05/12 07:11:21;;;;;;;23.92;4.78;;;;;;;14.88;54.43;101294.78;4989465;28;20053;-66
2023/05/12 07:13:49;;;;;;;10.48;4.22;;;;;;;15.18;52.86;101295.81;4989709;28;20047;-66
2023/05/12 07:16:17;;;;;;;8.40;4.75;;;;;;;15.32;52.41;101299.63;4989672;28;20051;-68
2023/05/12 07:18:44;;;;;;;14.93;5.10;;;;;;;15.32;51.76;101300.47;4990064;28;20051;-70
2023/05/12 07:21:12;;;;;;;16.42;4.25;;;;;;;15.53;51.65;101299.84;4989939;28;20466;-70
2023/05/12 07:23:38;;;;;;;12.20;4.72;;;;;;;16.11;51.09;101298.41;4989704;28;20141;-70
2023/05/12 07:26:06;;;;;;;14.32;4.63;;;;;;;16.45;49.83;101299.81;4990015;28;20406;-69
2023/05/12 07:28:35;;;;;;;9.43;4.35;;;;;;;17.00;49.03;101290.41;4993153;28;20053;-69
2023/05/12 07:31:06;;;;;;;16.50;4.13;;;;;;;16.72;48.59;101292.09;4994318;28;20065;-69
2023/05/12 07:33:33;;;;;;;12.27;4.68;;;;;;;16.87;47.24;101298.34;4993563;28;20042;-69
2023/05/12 07:36:01;;;;;;;10.75;4.20;;;;;;;16.54;47.24;101292.44;4994209;28;20042;-70
2023/05/12 07:38:28;;;;;;;14.75;4.45;;;;;;;16.75;46.75;101291.72;4993814;28;20415;-70
2023/05/12 07:40:54;;;;;;;13.77;4.00;;;;;;;16.55;46.86;101297.69;4993470;28;20042;-70
2023/05/12 07:43:21;;;;;;;14.32;4.43;;;;;;;17.46;45.91;101290.13;4983039;28;20062;-69
2023/05/12 07:45:47;;;;;;;15.60;4.53;;;;;;;17.44;45.28;101289.50;4974045;28;20125;-69
2023/05/12 07:48:14;;;;;;;15.80;3.40;;;;;;;17.41;44.03;101298.03;4973564;28;20054;-69
2023/05/12 07:50:41;;;;;;;14.10;3.72;;;;;;;18.12;43.18;101298.06;4972234;28;20408;-69
2023/05/12 07:53:07;;;;;;;11.63;3.80;;;;;;;17.82;43.26;101291.94;4973472;28;20049;-69
2023/05/12 07:55:34;;;;;;;11.52;4.00;;;;;;;17.71;42.91;101295.19;4973835;28;20047;-68
2023/05/12 07:58:01;;;;;;;10.75;3.70;;;;;;;17.93;43.12;101286.03;4974435;28;20138;-69
2023/05/12 08:00:27;;;;;;;12.15;4.13;;;;;;;17.99;42.62;101285.22;4973631;28;20508;-68
2023/05/12 08:02:54;;;;;;;13.20;3.63;;;;;;;18.41;42.37;101288.06;4985406;28;20057;-66
2023/05/12 08:05:21;;;;;;;9.18;3.35;;;;;;;19.13;41.29;101292.28;4991695;28;20058;-68
2023/05/12 08:07:47;;;;;;;11.70;3.55;;;;;;;19.07;39.74;101291.22;4991720;28;20141;-69
2023/05/12 08:10:14;;;;;;;10.18;3.78;;;;;;;18.77;39.44;101291.47;4992802;28;20533;-70
2023/05/12 08:12:41;;;;;;;14.90;3.60;;;;;;;18.73;38.43;101292.91;4992889;28;20042;-68
2023/05/12 08:15:08;;;;;;;12.15;3.42;;;;;;;18.76;38.30;101295.22;4993153;28;20054;-69
2023/05/12 08:17:35;;;;;;;11.40;3.75;;;;;;;18.48;38.22;101294.41;4992708;28;20057;-69
2023/05/12 08:20:05;;;;;;;9.45;2.80;;;;;;;18.64;38.16;101290.53;4994053;28;20046;-69
2023/05/12 08:22:32;;;;;;;6.13;3.25;;;;;;;18.86;38.53;101291.28;4993081;28;20054;-70
2023/05/12 08:24:58;;;;;;;14.82;4.20;;;;;;;19.06;38.11;101285.97;4989143;28;20119;-69
2023/05/12 08:27:25;;;;;;;10.38;3.17;;;;;;;19.08;37.59;101283.91;4992750;28;20100;-67
2023/05/12 08:29:52;;;;;;;16.38;3.55;;;;;;;20.49;36.42;101287.50;4991908;28;20144;-68
2023/05/12 08:32:18;;;;;;;11.32;3.33;;;;;;;19.98;35.85;101277.22;4991792;28;20050;-68
2023/05/12 08:34:45;;;;;;;15.20;3.60;;;;;;;20.29;35.11;101287.47;4981447;28;20047;-68
2023/05/12 08:37:12;;;;;;;10.13;3.30;;;;;;;20.38;34.15;101290.81;4964648;28;20074;-69
2023/05/12 08:39:38;;;;;;;6.82;3.17;;;;;;;21.08;33.46;101291.94;4972561;28;20105;-69
2023/05/12 08:42:25;;;;;;;7.50;3.10;;;;;;;20.40;32.54;101294.19;4973645;28;20046;-69
2023/05/12 08:44:52;;;;;;;7.00;3.25;;;;;;;21.17;32.06;101280.78;4973230;28;20050;-69
2023/05/12 08:47:21;;;;;;;20.20;3.40;;;;;;;21.29;31.58;101287.25;4974043;28;20047;-67
2023/05/12 08:49:57;;;;;;;11.80;3.40;;;;;;;21.15;31.83;101289.19;4962532;28;20046;-69
2023/05/12 08:52:26;;;;;;;12.60;3.72;;;;;;;21.38;30.66;101294.09;4993343;28;20151;-69
2023/05/12 08:54:52;;;;;;;8.57;2.97;;;;;;;21.82;30.53;101287.78;4992242;28;20046;-69
2023/05/12 08:57:22;;;;;;;10.30;3.40;;;;;;;21.97;29.69;101298.38;4992456;28;20070;-69
2023/05/12 08:59:54;;;;;;;5.28;2.78;;;;;;;22.41;29.20;101279.28;4992943;28;20073;-70
2023/05/12 09:02:22;;;;;;;9.60;2.92;;;;;;;20.91;30.40;101274.38;4984271;28;20050;-70
2023/05/12 09:04:51;;;;;;;22.38;3.08;;;;;;;20.07;31.04;101280.56;4988057;28;20056;-69
2023/05/12 09:07:18;;;;;;;10.13;2.83;;;;;;;20.29;30.88;101284.75;4991955;28;20061;-69
2023/05/12 09:09:47;;;;;;;11.07;2.85;;;;;;;20.11;31.78;101276.38;4992903;28;20047;-68
2023/05/12 09:12:17;;;;;;;11.20;2.90;;;;;;;19.91;31.73;101277.22;4992042;28;20070;-69
2023/05/12 09:14:45;;;;;;;11.98;2.85;;;;;;;20.31;31.94;101276.34;4993036;28;20139;-68
2023/05/12 09:17:12;;;;;;;15.90;2.95;;;;;;;20.06;30.84;101271.56;4992798;28;20053;-69
2023/05/12 09:19:39;;;;;;;9.70;2.47;;;;;;;19.94;30.62;101278.69;4992237;28;20047;-69
2023/05/12 09:22:08;;;;;;;10.32;2.70;;;;;;;19.37;30.85;101278.13;4992541;28;20053;-69
2023/05/12 09:24:38;;;;;;;5.90;2.95;;;;;;;19.91;31.08;101279.94;4981057;28;20122;-67
2023/05/12 09:27:05;;;;;;;6.28;2.80;;;;;;;19.74;30.97;101275.94;4973409;28;20042;-69
2023/05/12 09:29:33;;;;;;;6.97;2.50;;;;;;;19.89;30.65;101268.41;4973219;28;20043;-68
2023/05/12 09:32:07;;;;;;;5.47;2.70;;;;;;;19.80;31.03;101274.28;4971584;28;20054;-69
2023/05/12 09:34:37;;;;;;;8.38;2.95;;;;;;;19.65;31.36;101277.16;4973091;28;20046;-68
2023/05/12 09:37:06;;;;;;;10.77;2.47;;;;;;;19.36;31.34;101276.47;4972539;28;20054;-69
2023/05/12 09:39:33;;;;;;;7.90;2.67;;;;;;;19.90;30.33;101264.66;4972765;28;20435;-69
2023/05/12 09:41:59;;;;;;;9.00;2.53;;;;;;;19.95;30.20;101273.03;4971735;28;20051;-69
2023/05/12 09:44:29;;;;;;;8.85;2.70;;;;;;;20.30;29.92;101271.97;4972156;28;20082;-68
2023/05/12 09:47:05;;;;;;;10.95;2.72;;;;;;;19.33;29.85;101273.31;4972246;28;20414;-68
2023/05/12 09:49:31;;;;;;;16.98;3.30;;;;;;;20.22;29.94;101272.19;4972168;28;20070;-69
2023/05/12 09:51:58;;;;;;;10.07;3.33;;;;;;;20.58;29.47;101269.00;4971304;28;20055;-68
2023/05/12 09:54:29;;;;;;;10.70;3.05;;;;;;;19.65;30.81;101263.53;4972241;28;20055;-67
2023/05/12 09:56:58;;;;;;;7.75;3.22;;;;;;;20.11;30.42;101269.06;4971589;28;20047;-70
2023/05/12 09:59:33;;;;;;;8.02;2.70;;;;;;;20.23;30.30;101271.13;4971292;28;20050;-68
2023/05/12 10:02:01;;;;;;;5.05;2.58;;;;;;;19.98;30.11;101262.78;4981039;28;20490;-67
2023/05/12 10:04:31;;;;;;;7.40;2.97;;;;;;;19.24;30.92;101269.94;5010489;28;20054;-68
2023/05/12 10:06:58;;;;;;;8.02;3.25;;;;;;;19.46;31.00;101267.91;5010887;28;20073;-68
2023/05/12 10:09:30;;;;;;;9.10;3.10;;;;;;;20.05;30.77;101263.59;5011043;28;20136;-69
2023/05/12 10:11:57;;;;;;;8.23;3.10;;;;;;;20.25;30.34;101258.97;5011183;28;20042;-68
2023/05/12 10:14:24;;;;;;;11.75;2.85;;;;;;;20.67;29.95;101265.00;4986608;28;20145;-70
2023/05/12 10:16:52;;;;;;;63.33;5.70;;;;;;;21.16;34.94;101260.84;5009004;28;20049;-75
2023/05/12 10:19:20;;;;;;;11.10;2.70;;;;;;;21.84;28.84;101250.16;5010271;28;20060;-75
2023/05/12 10:21:47;;;;;;;13.77;3.28;;;;;;;21.34;29.36;101266.41;5010552;28;20048;-73
2023/05/12 10:24:15;;;;;;;12.80;2.88;;;;;;;21.06;31.61;101253.09;5010564;28;20081;-73
2023/05/12 10:26:43;;;;;;;7.25;2.72;;;;;;;20.83;30.63;101247.31;5010921;28;20129;-74
2023/05/12 10:29:12;;;;;;;8.73;2.80;;;;;;;21.47;29.36;101259.22;5002589;28;20103;-71
2023/05/12 10:31:38;;;;;;;4.55;2.58;;;;;;;21.75;29.81;101256.91;5011001;28;20061;-71
2023/05/12 10:34:05;;;;;;;6.88;2.55;;;;;;;21.74;29.85;101251.69;5011396;28;20045;-74
2023/05/12 10:36:45;;;;;;;8.18;2.60;;;;;;;22.10;29.94;101248.25;4992983;28;20066;-73
2023/05/12 10:39:14;;;;;;;11.68;2.60;;;;;;;21.61;32.28;101247.97;4990422;28;20038;-73
2023/05/12 10:41:41;;;;;;;9.07;2.50;;;;;;;21.35;32.80;101251.69;4990957;28;20081;-71
2023/05/12 10:44:09;;;;;;;13.43;2.83;;;;;;;21.33;32.32;101245.66;4991144;28;20050;-72
2023/05/12 10:46:36;;;;;;;8.07;2.80;;;;;;;21.07;31.71;101240.28;4990829;28;20042;-74
2023/05/12 10:49:08;;;;;;;6.45;2.70;;;;;;;19.96;32.84;101252.91;4983084;28;20050;-73
2023/05/12 10:51:44;;;;;;;11.48;2.58;;;;;;;20.07;32.58;101253.31;4990339;28;20049;-73
2023/05/12 10:54:21;;;;;;;10.88;2.90;;;;;;;20.13;33.60;101247.88;4970435;28;20057;-72
2023/05/12 10:56:48;;;;;;;10.30;3.17;;;;;;;20.42;32.79;101256.69;4968543;28;20130;-74
2023/05/12 10:59:21;;;;;;;10.05;2.70;;;;;;;20.57;34.62;101253.72;4952506;28;20138;-72
2023/05/12 11:01:59;;;;;;;6.43;2.70;;;;;;;20.81;32.45;101242.09;4967060;28;20069;-73
2023/05/12 11:04:41;;;;;;;8.88;3.17;;;;;;;20.72;32.67;101237.91;4959055;28;20141;-72
2023/05/12 11:07:09;;;;;;;9.55;2.90;;;;;;;19.95;33.33;101243.06;4970846;28;20051;-73
2023/05/12 11:09:39;;;;;;;11.40;2.83;;;;;;;19.61;33.98;101244.06;4970296;28;20042;-72
2023/05/12 11:12:25;;;;;;;11.35;3.05;;;;;;;19.19;35.13;101232.47;4970151;28;20145;-72
2023/05/12 11:14:51;;;;;;;11.40;3.15;;;;;;;19.53;33.50;101243.44;4970649;28;20046;-72
2023/05/12 11:17:18;;;;;;;9.07;3.35;;;;;;;19.93;34.76;101242.47;4985297;28;20061;-73
2023/05/12 11:19:49;;;;;;;11.75;2.83;;;;;;;20.19;33.16;101248.94;4970945;28;20451;-73
2023/05/12 11:22:18;;;;;;;8.63;3.00;;;;;;;20.03;32.97;101239.28;4971093;28;20101;-72
2023/05/12 11:24:46;;;;;;;10.20;2.90;;;;;;;19.76;33.46;101224.84;4970545;28;20057;-73